Time;durP1;ratioP1;P1;durP2;ratioP2;P2;SDS_P1;SDS_P2;PMS_P1;PMS_P2;Temp;Humidity;BMP_temperature;BMP_pressure;BME280_temperature;BME280_humidity;BME280_pressure;Samples;Min_cycle;Max_cycle;Signal;HPM_P1;HPM_P2
2022/10/23 00:01:30;;;;;;;0.60;0.60;;;;;;;;;;5079278;28;20040;-86
2022/10/23 00:03:59;;;;;;;0.70;0.70;;;;;;;;;;5060808;28;20033;-85
2022/10/23 00:06:26;;;;;;;0.60;0.60;;;;;;;;;;5078638;28;20040;-86
2022/10/23 00:08:52;;;;;;;1.00;0.80;;;;;;;;;;5078608;28;20036;-85
2022/10/23 00:11:21;;;;;;;1.50;0.73;;;;;;;;;;5077991;28;20098;-86
2022/10/23 00:13:48;;;;;;;0.60;0.60;;;;;;;;;;5078265;28;20477;-85
2022/10/23 00:16:13;;;;;;;0.55;0.52;;;;;;;;;;5078561;28;20056;-86
2022/10/23 00:18:39;;;;;;;2.13;0.70;;;;;;;;;;5077740;28;20037;-86
2022/10/23 00:21:08;;;;;;;2.88;0.88;;;;;;;;;;5078850;28;20039;-85
2022/10/23 00:23:33;;;;;;;0.70;0.70;;;;;;;;;;5078979;28;20039;-85
2022/10/23 00:25:59;;;;;;;1.65;0.70;;;;;;;;;;5077957;28;20033;-85
2022/10/23 00:28:25;;;;;;;0.90;0.73;;;;;;;;;;5078533;28;20032;-85
2022/10/23 00:30:51;;;;;;;2.15;0.70;;;;;;;;;;5060269;28;20063;-85
2022/10/23 00:33:17;;;;;;;1.15;0.70;;;;;;;;;;5060519;28;20408;-85
2022/10/23 00:35:43;;;;;;;2.10;0.70;;;;;;;;;;5060393;28;20101;-85
2022/10/23 00:38:09;;;;;;;1.48;0.70;;;;;;;;;;5078204;28;20032;-85
2022/10/23 00:40:36;;;;;;;1.33;0.70;;;;;;;;;;5059944;28;20039;-85
2022/10/23 00:43:02;;;;;;;0.80;0.60;;;;;;;;;;5077983;28;20059;-84
2022/10/23 00:45:32;;;;;;;1.75;0.77;;;;;;;;;;5060125;28;20428;-85
2022/10/23 00:48:02;;;;;;;1.77;0.60;;;;;;;;;;5078282;28;20032;-85
2022/10/23 00:50:30;;;;;;;0.65;0.65;;;;;;;;;;5060637;28;20049;-85
2022/10/23 00:52:59;;;;;;;1.33;0.75;;;;;;;;;;5078378;28;20055;-85
2022/10/23 00:55:26;;;;;;;1.98;0.88;;;;;;;;;;5077781;28;20033;-85
2022/10/23 00:57:52;;;;;;;1.58;0.70;;;;;;;;;;5059688;28;20035;-85
2022/10/23 01:00:39;;;;;;;1.23;0.70;;;;;;;;;;5060136;28;20035;-85
2022/10/23 01:03:04;;;;;;;2.80;0.82;;;;;;;;;;5078205;28;20425;-85
2022/10/23 01:05:37;;;;;;;1.23;0.65;;;;;;;;;;5059876;28;20520;-85
2022/10/23 01:08:16;;;;;;;2.40;0.73;;;;;;;;;;5059602;28;20457;-84
2022/10/23 01:10:51;;;;;;;1.27;0.93;;;;;;;;;;5098124;28;20051;-85
2022/10/23 01:13:49;;;;;;;1.27;0.70;;;;;;;;;;5079380;28;20129;-85
2022/10/23 01:16:30;;;;;;;2.72;0.70;;;;;;;;;;5078626;28;20077;-85
2022/10/23 01:19:34;;;;;;;0.70;0.55;;;;;;;;;;5080043;28;20042;-85
2022/10/23 01:22:43;;;;;;;2.47;0.68;;;;;;;;;;5080153;28;20303;-85
2022/10/23 01:25:29;;;;;;;1.15;0.60;;;;;;;;;;5048160;28;20048;-85
2022/10/23 01:28:01;;;;;;;1.75;0.82;;;;;;;;;;5079783;28;20032;-85
2022/10/23 01:30:29;;;;;;;0.80;0.65;;;;;;;;;;5079686;28;20149;-85
2022/10/23 01:33:07;;;;;;;1.17;0.70;;;;;;;;;;5097236;28;20492;-85
2022/10/23 01:35:44;;;;;;;0.77;0.60;;;;;;;;;;5079729;28;20099;-85
2022/10/23 01:38:15;;;;;;;0.60;0.60;;;;;;;;;;5079605;28;20036;-85
2022/10/23 01:40:52;;;;;;;0.90;0.60;;;;;;;;;;5079509;28;20038;-85
2022/10/23 01:43:27;;;;;;;0.75;0.60;;;;;;;;;;5083036;28;20063;-85
2022/10/23 01:46:01;;;;;;;1.25;0.63;;;;;;;;;;5082753;28;20032;-85
2022/10/23 01:48:29;;;;;;;0.65;0.60;;;;;;;;;;5083127;28;20487;-84
2022/10/23 01:50:59;;;;;;;1.33;0.70;;;;;;;;;;5083577;28;20042;-85
2022/10/23 01:53:29;;;;;;;0.73;0.70;;;;;;;;;;5083842;28;20028;-85
2022/10/23 01:55:56;;;;;;;0.90;0.57;;;;;;;;;;5083440;28;20035;-85
2022/10/23 01:58:26;;;;;;;2.60;0.70;;;;;;;;;;5082735;28;20032;-85
2022/10/23 02:00:57;;;;;;;3.13;0.60;;;;;;;;;;5083522;28;20181;-85
2022/10/23 02:03:25;;;;;;;0.57;0.50;;;;;;;;;;5083123;28;20024;-85
2022/10/23 02:05:51;;;;;;;0.98;0.50;;;;;;;;;;5082161;28;20035;-85
2022/10/23 02:08:16;;;;;;;1.52;0.60;;;;;;;;;;5083000;28;20036;-85
2022/10/23 02:10:51;;;;;;;2.25;0.63;;;;;;;;;;5082436;28;20062;-84
2022/10/23 02:13:57;;;;;;;2.42;0.52;;;;;;;;;;5081994;28;20242;-85
2022/10/23 02:16:48;;;;;;;1.23;0.68;;;;;;;;;;5038273;28;20037;-85
2022/10/23 02:19:42;;;;;;;1.75;0.63;;;;;;;;;;5064611;28;20040;-85
2022/10/23 02:22:29;;;;;;;1.20;0.50;;;;;;;;;;5101140;28;20496;-85
2022/10/23 02:25:14;;;;;;;2.53;0.80;;;;;;;;;;5100459;28;20407;-85
2022/10/23 02:27:46;;;;;;;0.68;0.60;;;;;;;;;;5082440;28;20527;-85
2022/10/23 02:30:15;;;;;;;1.63;0.70;;;;;;;;;;5101553;28;20408;-85
2022/10/23 02:32:51;;;;;;;1.42;0.80;;;;;;;;;;5082884;28;20042;-85
2022/10/23 02:35:21;;;;;;;1.30;0.87;;;;;;;;;;5082234;28;20039;-85
2022/10/23 02:37:54;;;;;;;0.68;0.60;;;;;;;;;;5082707;28;20032;-85
2022/10/23 02:40:39;;;;;;;1.38;0.68;;;;;;;;;;5082987;28;20403;-85
2022/10/23 02:43:31;;;;;;;1.02;0.70;;;;;;;;;;5082560;28;20107;-85
2022/10/23 02:46:08;;;;;;;0.65;0.57;;;;;;;;;;5082020;28;20185;-85
2022/10/23 02:48:43;;;;;;;2.35;0.80;;;;;;;;;;5100367;28;20093;-85
2022/10/23 02:51:26;;;;;;;0.95;0.60;;;;;;;;;;5082304;28;20040;-85
2022/10/23 02:54:04;;;;;;;1.80;0.60;;;;;;;;;;5081246;28;20036;-85
2022/10/23 02:56:49;;;;;;;1.65;0.68;;;;;;;;;;5081477;28;20103;-85
2022/10/23 02:59:34;;;;;;;;;;;;;;;;;;5082787;28;20466;-85
2022/10/23 03:02:32;;;;;;;0.57;0.57;;;;;;;;;;5081836;28;20026;-85
2022/10/23 03:05:00;;;;;;;2.53;0.60;;;;;;;;;;5081172;28;20589;-85
2022/10/23 03:07:26;;;;;;;1.13;0.63;;;;;;;;;;5081795;28;20077;-85
2022/10/23 03:09:58;;;;;;;1.83;1.00;;;;;;;;;;5081587;28;20028;-85
2022/10/23 03:12:23;;;;;;;1.45;0.80;;;;;;;;;;5081771;28;20345;-85
2022/10/23 03:14:49;;;;;;;4.40;0.63;;;;;;;;;;5099070;28;20484;-85
2022/10/23 03:17:14;;;;;;;0.98;0.60;;;;;;;;;;5081281;28;20058;-85
2022/10/23 03:19:40;;;;;;;1.13;0.60;;;;;;;;;;5081606;28;20071;-85
2022/10/23 03:22:05;;;;;;;3.13;0.60;;;;;;;;;;5081869;28;20036;-85
2022/10/23 03:24:31;;;;;;;0.65;0.60;;;;;;;;;;5081039;28;20081;-84
2022/10/23 03:26:56;;;;;;;0.95;0.60;;;;;;;;;;5081931;28;20032;-85
2022/10/23 03:29:28;;;;;;;0.50;0.50;;;;;;;;;;5081372;28;20115;-85
2022/10/23 03:31:54;;;;;;;0.75;0.65;;;;;;;;;;5099393;28;20105;-85
2022/10/23 03:34:20;;;;;;;0.73;0.50;;;;;;;;;;5098666;28;20104;-85
2022/10/23 03:36:46;;;;;;;0.63;0.60;;;;;;;;;;5080873;28;20078;-85
2022/10/23 03:39:13;;;;;;;1.00;0.45;;;;;;;;;;5081358;28;20089;-85
2022/10/23 03:41:40;;;;;;;3.13;1.10;;;;;;;;;;5080652;28;20027;-85
2022/10/23 03:44:06;;;;;;;0.85;0.82;;;;;;;;;;5081158;28;20028;-85
2022/10/23 03:46:32;;;;;;;0.63;0.60;;;;;;;;;;5081216;28;20099;-85
2022/10/23 03:48:58;;;;;;;0.70;0.70;;;;;;;;;;5080801;28;20024;-85
2022/10/23 03:51:24;;;;;;;1.00;0.77;;;;;;;;;;5098768;28;20032;-85
2022/10/23 03:53:49;;;;;;;2.13;0.70;;;;;;;;;;5080477;28;20072;-84
2022/10/23 03:56:15;;;;;;;0.60;0.60;;;;;;;;;;5080675;28;20028;-85
2022/10/23 03:58:40;;;;;;;0.80;0.80;;;;;;;;;;5080973;28;20027;-85
2022/10/23 04:01:06;;;;;;;1.00;0.80;;;;;;;;;;5081231;28;20035;-85
2022/10/23 04:03:31;;;;;;;3.67;0.65;;;;;;;;;;5098765;28;20023;-85
2022/10/23 04:05:57;;;;;;;0.60;0.55;;;;;;;;;;5098546;28;20047;-85
2022/10/23 04:08:22;;;;;;;0.85;0.60;;;;;;;;;;5110173;22;21249;-88
2022/10/23 04:10:56;;;;;;;3.33;0.70;;;;;;;;;;5073277;28;20075;-87
2022/10/23 04:13:33;;;;;;;2.72;1.13;;;;;;;;;;5072908;28;20115;-87
2022/10/23 04:15:59;;;;;;;3.53;0.63;;;;;;;;;;5073778;28;20055;-87
2022/10/23 04:18:29;;;;;;;0.70;0.60;;;;;;;;;;5072929;28;20024;-86
2022/10/23 04:20:58;;;;;;;0.98;0.50;;;;;;;;;;5056487;28;20182;-87
2022/10/23 04:23:26;;;;;;;2.13;0.93;;;;;;;;;;5079626;28;20020;-87
2022/10/23 04:25:56;;;;;;;1.25;0.60;;;;;;;;;;5073403;28;20059;-87
2022/10/23 04:28:25;;;;;;;1.08;0.60;;;;;;;;;;5073574;28;20028;-88
2022/10/23 04:30:54;;;;;;;2.20;0.63;;;;;;;;;;5073153;28;20024;-88
2022/10/23 04:33:20;;;;;;;2.13;0.70;;;;;;;;;;5072840;28;20404;-87
2022/10/23 04:35:49;;;;;;;1.58;1.10;;;;;;;;;;5073130;28;20036;-87
2022/10/23 04:38:15;;;;;;;1.20;0.90;;;;;;;;;;5072653;28;20036;-89
2022/10/23 04:40:42;;;;;;;1.73;1.08;;;;;;;;;;5072507;28;20032;-87
2022/10/23 04:43:08;;;;;;;2.65;1.42;;;;;;;;;;5056154;28;20063;-86
2022/10/23 04:45:36;;;;;;;1.88;1.20;;;;;;;;;;5056454;28;20060;-86
2022/10/23 04:48:02;;;;;;;1.42;1.00;;;;;;;;;;5074139;28;20059;-87
2022/10/23 04:50:42;;;;;;;5.57;1.90;;;;;;;;;;5072538;28;20113;-86
2022/10/23 04:53:30;;;;;;;8.38;4.18;;;;;;;;;;5080895;28;20123;-87
2022/10/23 04:56:14;;;;;;;4.20;2.65;;;;;;;;;;5090116;28;20055;-87
2022/10/23 04:58:58;;;;;;;3.45;2.13;;;;;;;;;;5072849;28;20040;-86
2022/10/23 05:01:24;;;;;;;1.70;1.00;;;;;;;;;;5072625;28;20119;-89
2022/10/23 05:03:53;;;;;;;2.97;0.70;;;;;;;;;;5089583;28;20028;-88
2022/10/23 05:06:28;;;;;;;3.58;0.90;;;;;;;;;;5056725;28;20036;-88
2022/10/23 05:09:29;;;;;;;0.60;0.60;;;;;;;;;;5064118;28;20063;-86
2022/10/23 05:12:14;;;;;;;0.60;0.60;;;;;;;;;;5057278;28;20040;-88
2022/10/23 05:14:42;;;;;;;1.10;0.90;;;;;;;;;;5071823;28;20040;-86
2022/10/23 05:17:34;;;;;;;0.90;0.80;;;;;;;;;;5072260;28;20029;-87
2022/10/23 05:20:11;;;;;;;1.35;0.60;;;;;;;;;;5072194;28;20036;-87
2022/10/23 05:22:40;;;;;;;2.03;0.70;;;;;;;;;;5055370;28;20067;-87
2022/10/23 05:25:12;;;;;;;0.98;0.47;;;;;;;;;;5071739;28;20074;-88
2022/10/23 05:27:42;;;;;;;;;;;;;;;;;;5056645;28;20032;-86
2022/10/23 05:30:12;;;;;;;0.52;0.50;;;;;;;;;;5071805;28;19912;-88
2022/10/23 05:32:39;;;;;;;0.50;0.50;;;;;;;;;;5071350;28;20025;-87
2022/10/23 05:35:08;;;;;;;0.88;0.68;;;;;;;;;;5079147;28;20029;-86
2022/10/23 05:37:38;;;;;;;0.70;0.55;;;;;;;;;;5055879;28;20052;-89
2022/10/23 05:40:14;;;;;;;3.05;0.60;;;;;;;;;;5055817;28;20036;-87
2022/10/23 05:42:42;;;;;;;1.15;0.73;;;;;;;;;;5072090;28;20366;-87
2022/10/23 05:45:10;;;;;;;1.55;0.70;;;;;;;;;;5071311;28;20044;-87
2022/10/23 05:47:54;;;;;;;0.55;0.40;;;;;;;;;;5072931;28;20052;-86
2022/10/23 05:50:55;;;;;;;0.47;0.47;;;;;;;;;;5081479;28;20033;-86
2022/10/23 05:53:34;;;;;;;0.45;0.45;;;;;;;;;;5057003;28;20039;-87
2022/10/23 05:56:26;;;;;;;3.97;0.68;;;;;;;;;;5061496;28;20033;-89
2022/10/23 05:58:59;;;;;;;3.72;2.20;;;;;;;;;;5056617;28;20063;-90
2022/10/23 06:01:44;;;;;;;2.30;0.90;;;;;;;;;;5073299;28;20037;-86
2022/10/23 06:04:14;;;;;;;0.50;0.50;;;;;;;;;;5055831;28;20544;-86
2022/10/23 06:06:58;;;;;;;2.17;0.63;;;;;;;;;;5073480;28;20051;-89
2022/10/23 06:09:23;;;;;;;1.15;0.70;;;;;;;;;;5071652;28;20084;-86
2022/10/23 06:11:55;;;;;;;0.63;0.63;;;;;;;;;;5071724;28;20027;-88
2022/10/23 06:14:21;;;;;;;1.58;0.40;;;;;;;;;;5054513;28;20412;-86
2022/10/23 06:16:49;;;;;;;1.30;0.82;;;;;;;;;;5071029;28;20032;-87
2022/10/23 06:19:15;;;;;;;0.93;0.82;;;;;;;;;;5070039;28;20036;-88
2022/10/23 06:21:42;;;;;;;1.02;0.80;;;;;;;;;;5071103;28;20378;-88
2022/10/23 06:24:11;;;;;;;0.70;0.70;;;;;;;;;;5070767;28;20098;-87
2022/10/23 06:26:43;;;;;;;2.22;0.80;;;;;;;;;;5056054;28;20044;-87
2022/10/23 06:29:15;;;;;;;0.82;0.70;;;;;;;;;;5074359;28;20115;-86
2022/10/23 06:31:42;;;;;;;1.75;0.90;;;;;;;;;;5074155;28;20036;-88
2022/10/23 06:34:10;;;;;;;1.80;1.02;;;;;;;;;;5073777;28;20041;-88
2022/10/23 06:36:36;;;;;;;1.25;0.77;;;;;;;;;;5073880;28;20035;-87
2022/10/23 06:39:16;;;;;;;0.90;0.75;;;;;;;;;;5075421;28;20040;-85
2022/10/23 06:41:57;;;;;;;1.10;0.70;;;;;;;;;;5091231;28;20070;-85
2022/10/23 06:44:52;;;;;;;5.40;0.90;;;;;;;;;;5070244;28;20060;-87
2022/10/23 06:47:36;;;;;;;2.45;1.00;;;;;;;;;;5095873;28;20052;-89
2022/10/23 06:50:20;;;;;;;;;;;;;;;;;;5106109;28;20066;-86
2022/10/23 06:52:45;;;;;;;0.77;0.70;;;;;;;;;;5094153;28;19912;-89
2022/10/23 06:55:14;;;;;;;1.92;0.63;;;;;;;;;;5110306;28;20051;-88
2022/10/23 06:57:41;;;;;;;1.70;0.60;;;;;;;;;;5102045;28;20400;-88
2022/10/23 07:00:07;;;;;;;0.77;0.40;;;;;;;;;;5100631;28;20031;-87
2022/10/23 07:02:41;;;;;;;1.55;0.70;;;;;;;;;;5082467;28;20035;-87
2022/10/23 07:05:07;;;;;;;1.25;0.70;;;;;;;;;;5096575;28;20115;-87
2022/10/23 07:07:33;;;;;;;2.42;0.60;;;;;;;;;;5097394;28;20024;-86
2022/10/23 07:09:58;;;;;;;0.60;0.50;;;;;;;;;;5081331;28;20177;-88
2022/10/23 07:12:33;;;;;;;0.98;0.60;;;;;;;;;;5096218;28;20089;-86
2022/10/23 07:15:19;;;;;;;0.80;0.60;;;;;;;;;;5098301;28;20044;-87
2022/10/23 07:17:44;;;;;;;0.55;0.50;;;;;;;;;;5094792;28;20093;-90
2022/10/23 07:20:10;;;;;;;0.60;0.50;;;;;;;;;;5095820;28;20055;-87
2022/10/23 07:22:37;;;;;;;0.90;0.60;;;;;;;;;;5094529;28;20039;-87
2022/10/23 07:25:10;;;;;;;1.13;0.60;;;;;;;;;;5094514;28;20396;-88
2022/10/23 07:27:37;;;;;;;1.23;0.70;;;;;;;;;;5078026;28;20030;-88
2022/10/23 07:30:06;;;;;;;0.73;0.70;;;;;;;;;;5097516;28;20028;-86
2022/10/23 07:32:38;;;;;;;1.30;1.00;;;;;;;;;;5096285;28;20050;-87
2022/10/23 07:35:33;;;;;;;0.82;0.73;;;;;;;;;;5087879;28;20674;-89
2022/10/23 07:38:12;;;;;;;1.08;0.60;;;;;;;;;;5080455;28;20081;-86
2022/10/23 07:40:42;;;;;;;2.03;0.55;;;;;;;;;;5094345;28;20028;-87
2022/10/23 07:43:09;;;;;;;2.75;0.60;;;;;;;;;;5073458;28;20032;-86
2022/10/23 07:45:34;;;;;;;1.05;0.50;;;;;;;;;;5073225;28;20178;-86
2022/10/23 07:48:07;;;;;;;0.47;0.47;;;;;;;;;;5083580;28;20036;-87
2022/10/23 07:50:56;;;;;;;1.27;0.60;;;;;;;;;;5060455;28;20107;-87
2022/10/23 07:53:24;;;;;;;0.70;0.63;;;;;;;;;;5073624;28;20032;-87
2022/10/23 07:55:57;;;;;;;3.10;0.60;;;;;;;;;;5056581;28;20032;-89
2022/10/23 07:58:26;;;;;;;0.60;0.55;;;;;;;;;;5073601;28;20041;-87
2022/10/23 08:01:14;;;;;;;0.90;0.50;;;;;;;;;;5078483;28;20036;-90
2022/10/23 08:03:40;;;;;;;0.73;0.68;;;;;;;;;;5073720;28;20032;-89
2022/10/23 08:06:06;;;;;;;2.55;0.60;;;;;;;;;;5073341;28;20028;-88
2022/10/23 08:08:32;;;;;;;0.93;0.70;;;;;;;;;;5073855;28;20366;-87
2022/10/23 08:11:01;;;;;;;2.08;0.60;;;;;;;;;;5073233;28;20032;-87
2022/10/23 08:13:32;;;;;;;1.55;0.65;;;;;;;;;;5072845;28;20025;-87
2022/10/23 08:16:02;;;;;;;2.05;0.80;;;;;;;;;;5073215;28;20036;-88
2022/10/23 08:19:00;;;;;;;1.83;0.60;;;;;;;;;;5072865;28;20036;-87
2022/10/23 08:21:27;;;;;;;0.60;0.60;;;;;;;;;;5056320;28;20082;-88
2022/10/23 08:23:55;;;;;;;0.82;0.50;;;;;;;;;;5072548;28;20370;-88
2022/10/23 08:26:21;;;;;;;1.23;0.63;;;;;;;;;;5071844;28;20047;-87
2022/10/23 08:28:47;;;;;;;1.13;0.60;;;;;;;;;;5072143;28;20037;-87
2022/10/23 08:31:15;;;;;;;0.82;0.60;;;;;;;;;;5072793;28;20131;-90
2022/10/23 08:33:52;;;;;;;0.40;0.40;;;;;;;;;;5057007;28;20028;-88
2022/10/23 08:36:39;;;;;;;0.40;0.40;;;;;;;;;;5038930;28;20055;-87
2022/10/23 08:39:06;;;;;;;1.45;0.68;;;;;;;;;;5072325;28;20397;-87
2022/10/23 08:41:46;;;;;;;1.20;0.60;;;;;;;;;;5056243;28;20032;-87
2022/10/23 08:45:16;;;;;;;0.63;0.50;;;;;;;;;;5071446;28;20055;-87
2022/10/23 08:47:50;;;;;;;0.95;0.60;;;;;;;;;;5075324;28;20048;-89
2022/10/23 08:50:41;;;;;;;0.45;0.40;;;;;;;;;;5072590;28;20546;-90
2022/10/23 08:53:37;;;;;;;0.98;0.55;;;;;;;;;;5071921;28;20409;-87
2022/10/23 08:56:25;;;;;;;0.52;0.50;;;;;;;;;;5071386;28;20107;-88
2022/10/23 08:59:19;;;;;;;0.82;0.57;;;;;;;;;;5072079;28;20043;-89
2022/10/23 09:02:10;;;;;;;0.60;0.60;;;;;;;;;;5072104;28;20032;-89
2022/10/23 09:04:36;;;;;;;0.65;0.45;;;;;;;;;;5073697;28;20103;-87
2022/10/23 09:07:18;;;;;;;0.80;0.50;;;;;;;;;;5072027;28;20170;-87
2022/10/23 09:10:02;;;;;;;0.50;0.50;;;;;;;;;;5073287;28;20024;-86
2022/10/23 09:12:29;;;;;;;0.93;0.50;;;;;;;;;;5078364;28;20464;-87
2022/10/23 09:14:57;;;;;;;0.80;0.40;;;;;;;;;;5073048;28;20409;-87
2022/10/23 09:17:36;;;;;;;1.33;0.50;;;;;;;;;;5071855;28;20051;-87
2022/10/23 09:20:20;;;;;;;0.65;0.50;;;;;;;;;;5074024;28;20036;-87
2022/10/23 09:22:59;;;;;;;1.45;0.60;;;;;;;;;;5071871;28;20124;-86
2022/10/23 09:25:28;;;;;;;2.67;0.60;;;;;;;;;;5073184;28;20128;-88
2022/10/23 09:27:56;;;;;;;0.43;0.40;;;;;;;;;;5073452;28;20038;-86
2022/10/23 09:30:31;;;;;;;0.50;0.43;;;;;;;;;;5072344;28;20396;-86
2022/10/23 09:32:57;;;;;;;1.77;0.60;;;;;;;;;;5071439;28;20055;-87
2022/10/23 09:35:26;;;;;;;0.90;0.60;;;;;;;;;;5071491;28;20102;-87
2022/10/23 09:37:52;;;;;;;0.68;0.47;;;;;;;;;;5071073;28;20059;-86
2022/10/23 09:40:29;;;;;;;1.85;0.60;;;;;;;;;;5070808;28;20096;-86
2022/10/23 09:43:12;;;;;;;0.47;0.40;;;;;;;;;;5072797;28;20029;-86
2022/10/23 09:45:41;;;;;;;0.75;0.47;;;;;;;;;;5080941;28;20040;-85
2022/10/23 09:48:16;;;;;;;1.17;0.70;;;;;;;;;;5054874;28;20405;-88
2022/10/23 09:50:58;;;;;;;0.65;0.43;;;;;;;;;;5074555;28;20036;-88
2022/10/23 09:53:34;;;;;;;1.45;0.77;;;;;;;;;;5074163;28;20033;-86
2022/10/23 09:56:21;;;;;;;0.57;0.57;;;;;;;;;;5072195;28;20066;-86
2022/10/23 09:58:56;;;;;;;2.30;0.60;;;;;;;;;;5050107;28;20052;-87
2022/10/23 10:01:28;;;;;;;1.40;0.50;;;;;;;;;;5071188;28;20033;-88
2022/10/23 10:04:04;;;;;;;2.65;1.20;;;;;;;;;;5074796;28;20039;-86
2022/10/23 10:06:32;;;;;;;2.03;0.70;;;;;;;;;;5074620;28;20036;-86
2022/10/23 10:09:17;;;;;;;1.15;0.70;;;;;;;;;;5099939;22;20613;-86
2022/10/23 10:11:48;;;;;;;0.80;0.60;;;;;;;;;;5078818;28;20052;-88
2022/10/23 10:14:29;;;;;;;0.52;0.50;;;;;;;;;;5077999;28;20036;-85
2022/10/23 10:17:05;;;;;;;4.72;2.03;;;;;;;;;;5080569;28;20062;-89
2022/10/23 10:19:49;;;;;;;1.13;1.00;;;;;;;;;;5080289;28;20086;-87
2022/10/23 10:22:33;;;;;;;;;;;;;;;;;;5081182;28;20039;-86
2022/10/23 10:25:36;;;;;;;0.63;0.60;;;;;;;;;;5078817;28;19920;-87
2022/10/23 10:28:23;;;;;;;1.35;0.50;;;;;;;;;;5059326;28;20485;-87
2022/10/23 10:31:17;;;;;;;0.98;0.45;;;;;;;;;;5080716;28;20509;-88
2022/10/23 10:34:04;;;;;;;0.70;0.43;;;;;;;;;;5079337;28;20102;-87
2022/10/23 10:37:11;;;;;;;0.60;0.50;;;;;;;;;;5080334;28;20041;-88
2022/10/23 10:39:43;;;;;;;0.95;0.70;;;;;;;;;;5038019;28;20087;-88
2022/10/23 10:42:32;;;;;;;0.85;0.65;;;;;;;;;;5072247;28;20040;-88
2022/10/23 10:45:16;;;;;;;1.13;0.70;;;;;;;;;;5080075;28;20029;-89
2022/10/23 10:47:53;;;;;;;0.82;0.57;;;;;;;;;;5080789;28;20033;-89
2022/10/23 10:50:29;;;;;;;0.55;0.50;;;;;;;;;;5078020;28;20029;-89
2022/10/23 10:53:32;;;;;;;1.02;0.50;;;;;;;;;;5079334;28;20515;-88
2022/10/23 10:56:01;;;;;;;0.98;0.60;;;;;;;;;;5078853;28;20047;-88
2022/10/23 10:58:34;;;;;;;2.00;0.40;;;;;;;;;;5078628;28;20032;-88
2022/10/23 11:01:04;;;;;;;0.77;0.47;;;;;;;;;;5078485;28;20091;-89
2022/10/23 11:03:52;;;;;;;0.63;0.50;;;;;;;;;;5080411;28;20029;-88
2022/10/23 11:06:22;;;;;;;2.85;0.38;;;;;;;;;;5078510;28;20037;-88
2022/10/23 11:08:49;;;;;;;2.08;0.70;;;;;;;;;;5078364;28;20037;-88
2022/10/23 11:11:33;;;;;;;1.40;0.50;;;;;;;;;;5080323;28;20022;-88
2022/10/23 11:13:59;;;;;;;0.45;0.45;;;;;;;;;;5077686;28;20032;-87
2022/10/23 11:16:29;;;;;;;0.85;0.40;;;;;;;;;;5079717;28;20032;-88
2022/10/23 11:19:24;;;;;;;1.98;0.70;;;;;;;;;;5078789;28;20043;-87
2022/10/23 11:21:49;;;;;;;2.63;0.40;;;;;;;;;;5079069;28;20048;-88
2022/10/23 11:24:14;;;;;;;0.50;0.47;;;;;;;;;;5077967;28;20036;-88
2022/10/23 11:26:45;;;;;;;1.48;0.30;;;;;;;;;;5079203;28;20106;-88
2022/10/23 11:29:40;;;;;;;1.65;0.47;;;;;;;;;;5078781;28;20036;-88
2022/10/23 11:32:13;;;;;;;1.52;0.70;;;;;;;;;;5078781;28;20063;-88
2022/10/23 11:34:57;;;;;;;1.05;0.70;;;;;;;;;;5077354;28;20408;-88
2022/10/23 11:37:23;;;;;;;0.50;0.50;;;;;;;;;;5079414;28;20044;-88
2022/10/23 11:40:00;;;;;;;1.50;0.60;;;;;;;;;;5079031;28;20056;-89
2022/10/23 11:42:44;;;;;;;1.75;0.30;;;;;;;;;;5078750;28;20036;-88
2022/10/23 11:45:28;;;;;;;3.75;0.60;;;;;;;;;;5078841;28;20029;-88
2022/10/23 11:47:59;;;;;;;1.60;0.60;;;;;;;;;;5077999;28;20040;-89
2022/10/23 11:50:43;;;;;;;0.85;0.50;;;;;;;;;;5078035;28;20044;-88
2022/10/23 11:53:25;;;;;;;2.75;0.60;;;;;;;;;;5077500;28;20044;-88
2022/10/23 11:56:01;;;;;;;1.25;0.52;;;;;;;;;;5076760;28;20029;-88
2022/10/23 11:58:41;;;;;;;0.73;0.50;;;;;;;;;;5078555;28;20103;-88
2022/10/23 12:01:43;;;;;;;0.60;0.40;;;;;;;;;;5080799;28;20063;-87
2022/10/23 12:04:11;;;;;;;0.75;0.40;;;;;;;;;;5077755;28;20113;-88
2022/10/23 12:06:48;;;;;;;0.40;0.40;;;;;;;;;;5079059;28;20026;-89
2022/10/23 12:09:38;;;;;;;9.65;0.68;;;;;;;;;;5078328;28;20029;-88
2022/10/23 12:12:06;;;;;;;1.33;0.65;;;;;;;;;;5078121;28;20098;-88
2022/10/23 12:14:45;;;;;;;1.15;0.50;;;;;;;;;;5077501;28;20043;-87
2022/10/23 12:17:22;;;;;;;0.60;0.60;;;;;;;;;;5078712;28;20440;-88
2022/10/23 12:19:54;;;;;;;0.38;0.38;;;;;;;;;;5077845;28;20040;-88
2022/10/23 12:22:32;;;;;;;0.82;0.52;;;;;;;;;;5078297;28;20032;-88
2022/10/23 12:24:58;;;;;;;3.08;0.65;;;;;;;;;;5077377;28;20081;-88
2022/10/23 12:27:32;;;;;;;2.08;0.60;;;;;;;;;;5076990;28;20029;-88
2022/10/23 12:30:30;;;;;;;2.10;0.30;;;;;;;;;;5078250;28;20076;-88
2022/10/23 12:33:25;;;;;;;0.57;0.45;;;;;;;;;;5043466;28;20041;-88
2022/10/23 12:36:06;;;;;;;1.13;0.60;;;;;;;;;;5078011;28;20037;-88
2022/10/23 12:38:32;;;;;;;0.80;0.60;;;;;;;;;;5077743;28;20097;-88
2022/10/23 12:41:21;;;;;;;1.15;0.50;;;;;;;;;;5077965;28;20024;-88
2022/10/23 12:43:55;;;;;;;1.27;0.30;;;;;;;;;;5076694;28;20063;-88
2022/10/23 12:46:39;;;;;;;0.65;0.63;;;;;;;;;;5077762;28;20036;-88
2022/10/23 12:49:22;;;;;;;2.38;0.80;;;;;;;;;;5076577;28;20047;-88
2022/10/23 12:51:58;;;;;;;2.42;0.85;;;;;;;;;;5077185;28;20093;-88
2022/10/23 12:54:24;;;;;;;2.13;1.00;;;;;;;;;;5059836;28;20032;-89
2022/10/23 12:56:51;;;;;;;2.70;0.50;;;;;;;;;;5076876;28;20039;-91
2022/10/23 12:59:19;;;;;;;3.22;0.60;;;;;;;;;;5077813;28;20140;-88
2022/10/23 13:01:45;;;;;;;0.90;0.60;;;;;;;;;;5076549;28;20100;-88
2022/10/23 13:04:22;;;;;;;2.50;0.50;;;;;;;;;;5077134;28;20048;-88
2022/10/23 13:06:49;;;;;;;0.63;0.40;;;;;;;;;;5077751;28;20032;-88
2022/10/23 13:09:37;;;;;;;1.40;0.40;;;;;;;;;;5077534;28;20062;-88
2022/10/23 13:12:28;;;;;;;4.22;0.60;;;;;;;;;;5062706;28;20032;-87
2022/10/23 13:15:17;;;;;;;1.60;0.50;;;;;;;;;;5077776;28;20040;-88
2022/10/23 13:18:02;;;;;;;0.60;0.50;;;;;;;;;;5075242;28;20051;-88
2022/10/23 13:20:34;;;;;;;3.20;0.40;;;;;;;;;;5076061;28;20040;-89
2022/10/23 13:23:08;;;;;;;0.88;0.50;;;;;;;;;;5076284;28;20111;-88
2022/10/23 13:25:36;;;;;;;0.95;0.50;;;;;;;;;;5074835;28;20024;-88
2022/10/23 13:28:19;;;;;;;1.27;0.60;;;;;;;;;;5075122;28;20028;-88
2022/10/23 13:30:55;;;;;;;0.95;0.70;;;;;;;;;;5075903;28;20089;-89
2022/10/23 13:33:30;;;;;;;1.13;0.60;;;;;;;;;;5075052;28;20477;-88
2022/10/23 13:36:12;;;;;;;0.50;0.50;;;;;;;;;;5075108;28;20035;-89
2022/10/23 13:38:41;;;;;;;1.85;0.70;;;;;;;;;;5080229;28;20504;-88
2022/10/23 13:41:13;;;;;;;1.83;0.50;;;;;;;;;;5080064;28;20074;-88
2022/10/23 13:43:39;;;;;;;2.30;0.60;;;;;;;;;;5081513;28;20050;-89
2022/10/23 13:46:11;;;;;;;2.42;0.50;;;;;;;;;;5082528;28;20035;-89
2022/10/23 13:48:36;;;;;;;0.95;0.80;;;;;;;;;;5082058;28;20064;-88
2022/10/23 13:51:10;;;;;;;1.20;0.70;;;;;;;;;;5080999;28;20044;-89
2022/10/23 13:53:36;;;;;;;1.95;0.60;;;;;;;;;;5081967;28;20165;-88
2022/10/23 13:56:02;;;;;;;0.68;0.50;;;;;;;;;;5082203;28;20568;-89
2022/10/23 13:58:27;;;;;;;3.08;0.70;;;;;;;;;;5079930;28;20067;-88
2022/10/23 14:00:53;;;;;;;0.40;0.40;;;;;;;;;;5082917;28;20036;-88
2022/10/23 14:03:23;;;;;;;2.92;0.60;;;;;;;;;;5083097;28;20112;-88
2022/10/23 14:05:52;;;;;;;0.40;0.40;;;;;;;;;;5082630;28;20040;-88
2022/10/23 14:08:17;;;;;;;1.52;0.50;;;;;;;;;;5082827;28;20142;-87
2022/10/23 14:10:43;;;;;;;1.17;0.60;;;;;;;;;;5081303;28;20064;-88
2022/10/23 14:13:09;;;;;;;2.60;0.55;;;;;;;;;;5080952;28;20044;-88
2022/10/23 14:15:34;;;;;;;0.80;0.60;;;;;;;;;;5081188;28;20119;-88
2022/10/23 14:18:00;;;;;;;1.05;0.70;;;;;;;;;;5083150;28;20093;-89
2022/10/23 14:20:26;;;;;;;0.68;0.52;;;;;;;;;;5080717;28;20040;-89
2022/10/23 14:22:51;;;;;;;1.95;0.63;;;;;;;;;;5082108;28;20124;-89
2022/10/23 14:25:17;;;;;;;1.85;0.65;;;;;;;;;;5083176;28;20062;-89
2022/10/23 14:27:43;;;;;;;1.42;0.70;;;;;;;;;;5085062;28;20032;-89
2022/10/23 14:30:09;;;;;;;1.05;0.70;;;;;;;;;;5082119;28;20040;-88
2022/10/23 14:32:35;;;;;;;0.80;0.50;;;;;;;;;;5080369;28;20041;-90
2022/10/23 14:35:02;;;;;;;0.70;0.50;;;;;;;;;;5081616;28;20404;-88
2022/10/23 14:37:32;;;;;;;3.55;0.60;;;;;;;;;;5081614;28;20036;-87
2022/10/23 14:39:57;;;;;;;2.72;1.20;;;;;;;;;;5081885;28;20039;-87
2022/10/23 14:42:23;;;;;;;5.28;2.40;;;;;;;;;;5081635;28;20473;-88
2022/10/23 14:44:49;;;;;;;3.78;1.20;;;;;;;;;;5080679;28;20130;-88
2022/10/23 14:47:15;;;;;;;1.13;0.85;;;;;;;;;;5081920;28;20119;-87
2022/10/23 14:49:43;;;;;;;3.75;1.08;;;;;;;;;;5077043;28;20039;-88
2022/10/23 14:52:08;;;;;;;2.45;0.57;;;;;;;;;;5079372;28;20037;-87
2022/10/23 14:54:35;;;;;;;3.42;1.20;;;;;;;;;;5079968;28;20089;-88
2022/10/23 14:57:01;;;;;;;3.08;1.45;;;;;;;;;;5081542;28;20036;-88
2022/10/23 14:59:29;;;;;;;4.60;1.60;;;;;;;;;;5077739;28;20062;-88
2022/10/23 15:01:55;;;;;;;3.60;1.52;;;;;;;;;;5079920;28;20090;-88
2022/10/23 15:04:20;;;;;;;3.30;1.63;;;;;;;;;;5078504;28;20042;-88
2022/10/23 15:06:46;;;;;;;1.27;1.00;;;;;;;;;;5081232;28;20044;-88
2022/10/23 15:09:12;;;;;;;3.13;0.88;;;;;;;;;;5079873;28;20028;-87
2022/10/23 15:11:38;;;;;;;3.30;0.80;;;;;;;;;;5079698;28;20111;-89
2022/10/23 15:14:03;;;;;;;2.40;0.80;;;;;;;;;;5077540;28;20483;-88
2022/10/23 15:16:29;;;;;;;1.52;0.70;;;;;;;;;;5076846;28;20054;-87
2022/10/23 15:18:55;;;;;;;3.08;0.90;;;;;;;;;;5079490;28;20032;-89
2022/10/23 15:21:20;;;;;;;1.00;0.70;;;;;;;;;;5078165;28;20037;-88
2022/10/23 15:23:46;;;;;;;3.92;1.85;;;;;;;;;;5078648;28;20412;-88